createdAt,value
2023-10-06T00:00:35.243Z,9.27
2023-10-06T00:04:53.384Z,9.68
2023-10-06T00:09:11.348Z,7.93
2023-10-06T00:13:30.823Z,7.40
2023-10-06T00:17:50.733Z,6.30
2023-10-06T00:22:19.448Z,6.95
2023-10-06T00:26:35.926Z,9.63
2023-10-06T00:31:09.952Z,11.40
2023-10-06T00:35:32.706Z,7.15
2023-10-06T00:39:51.577Z,10.05
2023-10-06T00:44:08.144Z,7.55
2023-10-06T00:48:25.231Z,8.20
2023-10-06T00:52:42.348Z,11.63
2023-10-06T00:56:59.633Z,8.70
2023-10-06T01:01:18.814Z,7.03
2023-10-06T01:05:35.540Z,9.88
2023-10-06T01:09:58.531Z,6.93
2023-10-06T01:18:36.614Z,7.72
2023-10-06T01:22:57.683Z,7.05
2023-10-06T01:27:14.256Z,7.60
2023-10-06T01:31:31.098Z,8.23
2023-10-06T01:35:47.526Z,8.15
2023-10-06T01:40:10.047Z,12.65
2023-10-06T01:44:28.926Z,8.30
2023-10-06T01:48:45.271Z,9.57
2023-10-06T01:53:06.601Z,7.43
2023-10-06T01:57:24.066Z,9.27
2023-10-06T02:01:41.845Z,12.05
2023-10-06T02:06:01.363Z,8.80
2023-10-06T02:10:19.822Z,7.82
2023-10-06T02:14:37.215Z,10.80
2023-10-06T02:18:55.531Z,9.23
2023-10-06T02:23:14.595Z,7.07
2023-10-06T02:27:37.415Z,12.18
2023-10-06T02:31:54.215Z,8.27
2023-10-06T02:36:19.581Z,7.47
2023-10-06T02:40:50.077Z,9.98
2023-10-06T02:45:08.309Z,7.40
2023-10-06T02:49:33.369Z,7.95
2023-10-06T02:53:52.334Z,9.30
2023-10-06T02:58:11.280Z,7.97
2023-10-06T03:02:28.046Z,9.90
2023-10-06T03:07:05.171Z,6.40
2023-10-06T03:11:24.878Z,8.57
2023-10-06T03:15:47.708Z,7.75
2023-10-06T03:20:13.081Z,7.68
2023-10-06T03:24:38.117Z,9.70
2023-10-06T03:28:54.740Z,7.87
2023-10-06T03:33:13.912Z,8.05
2023-10-06T03:37:48.570Z,9.80
2023-10-06T03:42:09.008Z,10.10
2023-10-06T03:46:25.924Z,10.27
2023-10-06T03:50:45.173Z,9.40
2023-10-06T03:55:01.821Z,8.68
2023-10-06T03:59:18.605Z,10.80
2023-10-06T04:03:35.543Z,9.35
2023-10-06T04:07:51.987Z,8.55
2023-10-06T04:12:08.457Z,8.05
2023-10-06T04:16:25.510Z,9.18
2023-10-06T04:20:45.280Z,11.35
2023-10-06T04:25:01.836Z,9.32
2023-10-06T04:29:20.231Z,10.45
2023-10-06T04:33:36.927Z,9.35
2023-10-06T04:37:53.522Z,8.00
2023-10-06T04:42:09.905Z,10.43
2023-10-06T04:46:27.451Z,8.55
2023-10-06T04:50:44.157Z,10.15
2023-10-06T04:55:04.536Z,10.10
2023-10-06T04:59:20.939Z,9.98
2023-10-06T05:03:47.871Z,20.55
2023-10-06T05:08:06.373Z,11.07
2023-10-06T05:12:24.978Z,10.88
2023-10-06T05:16:42.405Z,8.73
2023-10-06T05:20:59.561Z,8.38
2023-10-06T05:25:16.612Z,12.35
2023-10-06T05:29:37.461Z,12.25
2023-10-06T05:33:53.820Z,11.50
2023-10-06T05:38:17.418Z,10.32
2023-10-06T05:42:34.622Z,14.65
2023-10-06T05:46:50.933Z,12.48
2023-10-06T05:51:11.430Z,8.50
2023-10-06T05:55:36.573Z,10.93
2023-10-06T05:59:53.403Z,14.18
2023-10-06T06:04:10.593Z,12.70
2023-10-06T06:08:26.881Z,12.60
2023-10-06T06:12:43.820Z,12.05
2023-10-06T06:17:01.811Z,15.43
2023-10-06T06:21:18.171Z,15.32
2023-10-06T06:25:37.324Z,15.68
2023-10-06T06:29:54.238Z,16.85
2023-10-06T06:34:10.782Z,14.48
2023-10-06T06:38:27.146Z,14.15
2023-10-06T06:42:43.576Z,15.27
2023-10-06T06:46:59.883Z,14.25
2023-10-06T06:51:16.189Z,17.80
2023-10-06T06:55:33.662Z,13.10
2023-10-06T06:59:50.902Z,13.90
2023-10-06T07:04:09.967Z,11.95
2023-10-06T07:08:26.437Z,10.05
2023-10-06T07:12:44.508Z,10.77
2023-10-06T07:17:01.749Z,10.60
2023-10-06T07:21:19.337Z,9.07
2023-10-06T07:25:35.636Z,10.95
2023-10-06T07:29:55.153Z,12.20
2023-10-06T07:34:13.396Z,9.13
2023-10-06T07:38:29.865Z,12.35
2023-10-06T07:42:47.979Z,10.77
2023-10-06T07:47:04.671Z,14.05
2023-10-06T07:51:21.228Z,11.15
2023-10-06T07:55:38.404Z,12.60
2023-10-06T07:59:54.745Z,12.63
2023-10-06T08:04:12.086Z,21.40
2023-10-06T08:08:30.170Z,12.10
2023-10-06T08:12:57.851Z,8.93
2023-10-06T08:17:14.403Z,11.98
2023-10-06T08:21:30.746Z,10.93
2023-10-06T08:25:59.715Z,9.98
2023-10-06T08:30:18.619Z,8.85
2023-10-06T08:34:40.641Z,10.18
2023-10-06T08:38:59.093Z,10.43
2023-10-06T08:43:19.490Z,9.65
2023-10-06T08:47:49.023Z,7.62
2023-10-06T08:52:13.537Z,12.95
2023-10-06T08:56:32.128Z,8.85
2023-10-06T09:00:48.737Z,9.57
2023-10-06T09:05:06.923Z,9.32
2023-10-06T09:09:29.548Z,10.65
2023-10-06T09:13:48.222Z,9.13
2023-10-06T09:18:22.240Z,7.57
2023-10-06T09:22:52.071Z,11.23
2023-10-06T09:27:21.332Z,7.45
2023-10-06T09:31:40.144Z,7.22
2023-10-06T09:36:08.673Z,7.78
2023-10-06T09:40:25.096Z,5.85
2023-10-06T09:44:42.809Z,11.77
2023-10-06T09:49:01.188Z,6.95
2023-10-06T09:53:19.375Z,7.35
2023-10-06T09:57:36.758Z,7.12
2023-10-06T10:01:53.731Z,6.80
2023-10-06T10:06:11.356Z,7.50
2023-10-06T10:10:29.011Z,12.85
2023-10-06T10:14:56.574Z,7.62
2023-10-06T10:19:14.684Z,7.03
2023-10-06T10:23:31.960Z,10.63
2023-10-06T10:28:18.829Z,6.62
2023-10-06T10:32:35.251Z,8.63
2023-10-06T10:37:15.501Z,9.60
2023-10-06T10:41:36.607Z,5.40
2023-10-06T10:46:00.830Z,6.05
2023-10-06T10:50:18.507Z,6.50
2023-10-06T10:54:36.957Z,5.12
2023-10-06T10:58:55.397Z,7.53
2023-10-06T11:03:12.376Z,8.40
2023-10-06T11:07:28.809Z,2.97
2023-10-06T11:11:45.099Z,4.37
2023-10-06T11:16:06.377Z,2.97
2023-10-06T11:20:28.715Z,6.20
2023-10-06T11:24:45.963Z,1.30
2023-10-06T11:29:02.340Z,1.67
2023-10-06T11:33:21.579Z,3.05
2023-10-06T11:37:38.106Z,3.50
2023-10-06T11:41:57.319Z,2.65
2023-10-06T11:46:16.769Z,3.30
2023-10-06T11:50:34.044Z,5.40
2023-10-06T11:54:51.100Z,6.05
2023-10-06T11:59:19.459Z,3.37
2023-10-06T12:03:44.360Z,3.47
2023-10-06T12:08:10.231Z,6.45
2023-10-06T12:12:26.718Z,7.50
2023-10-06T12:16:46.453Z,5.87
2023-10-06T12:21:04.060Z,6.22
2023-10-06T12:25:26.844Z,3.92
2023-10-06T12:34:05.348Z,3.03
2023-10-06T12:38:22.158Z,5.00
2023-10-06T12:42:40.183Z,5.25
2023-10-06T12:46:57.059Z,3.15
2023-10-06T12:51:14.296Z,4.30
2023-10-06T12:55:30.678Z,3.55
2023-10-06T12:59:47.295Z,5.57
2023-10-06T13:04:03.872Z,4.35
2023-10-06T13:08:23.067Z,5.62
2023-10-06T13:12:43.073Z,7.03
2023-10-06T13:16:59.624Z,4.10
2023-10-06T13:21:16.033Z,5.82
2023-10-06T13:25:33.083Z,4.07
2023-10-06T13:29:49.463Z,5.10
2023-10-06T13:34:05.882Z,4.03
2023-10-06T13:38:23.040Z,5.28
2023-10-06T13:42:46.667Z,3.75
2023-10-06T13:47:07.049Z,3.20
2023-10-06T13:51:23.408Z,4.32
2023-10-06T13:55:40.757Z,2.95
2023-10-06T13:59:57.137Z,3.55
2023-10-06T14:04:14.466Z,6.57
2023-10-06T14:08:30.899Z,3.15
2023-10-06T14:12:52.459Z,2.90
2023-10-06T14:17:18.079Z,3.45
2023-10-06T14:21:35.595Z,4.80
2023-10-06T14:25:53.566Z,6.12
2023-10-06T14:30:10.687Z,2.80
2023-10-06T14:34:53.417Z,6.55
2023-10-06T14:39:28.179Z,4.97
2023-10-06T14:44:04.248Z,3.92
2023-10-06T14:48:20.610Z,2.95
2023-10-06T14:52:37.031Z,3.67
2023-10-06T14:56:55.307Z,3.30
2023-10-06T15:01:15.937Z,6.40
2023-10-06T15:05:39.782Z,4.05
2023-10-06T15:09:57.035Z,4.28
2023-10-06T15:14:15.404Z,4.75
2023-10-06T15:18:32.185Z,6.37
2023-10-06T15:22:52.737Z,3.30
2023-10-06T15:27:09.385Z,3.90
2023-10-06T15:31:28.464Z,5.95
2023-10-06T15:35:45.042Z,4.75
2023-10-06T15:40:04.746Z,3.37
2023-10-06T15:44:22.041Z,5.65
2023-10-06T15:48:39.931Z,3.05
2023-10-06T15:52:56.819Z,5.65
2023-10-06T15:57:13.200Z,6.00
2023-10-06T16:01:30.231Z,6.80
2023-10-06T16:05:47.235Z,6.47
2023-10-06T16:10:03.779Z,6.30
2023-10-06T16:14:20.730Z,5.53
2023-10-06T16:18:37.706Z,7.62
2023-10-06T16:22:58.821Z,8.70
2023-10-06T16:27:15.367Z,8.85
2023-10-06T16:31:34.360Z,4.87
2023-10-06T16:35:51.231Z,32.95
2023-10-06T16:40:10.677Z,12.32
2023-10-06T16:44:27.335Z,7.43
2023-10-06T16:48:43.955Z,14.13
2023-10-06T16:53:01.492Z,13.55
2023-10-06T16:57:18.209Z,11.07
2023-10-06T17:01:36.112Z,9.18
2023-10-06T17:05:53.373Z,10.32
2023-10-06T17:10:11.595Z,12.70
2023-10-06T17:14:28.358Z,10.82
2023-10-06T17:18:44.879Z,7.65
2023-10-06T17:23:01.753Z,9.85
2023-10-06T17:27:18.260Z,12.65
2023-10-06T17:31:36.140Z,6.97
2023-10-06T17:35:52.933Z,9.02
2023-10-06T17:40:11.597Z,9.50
2023-10-06T17:44:29.058Z,7.35
2023-10-06T17:48:49.254Z,4.62
2023-10-06T17:53:06.699Z,6.78
2023-10-06T17:57:24.261Z,8.32
2023-10-06T18:01:40.752Z,7.43
2023-10-06T18:05:57.364Z,10.93
2023-10-06T18:10:15.953Z,9.07
2023-10-06T18:14:32.555Z,7.32
2023-10-06T18:18:48.859Z,5.47
2023-10-06T18:23:06.930Z,8.80
2023-10-06T18:27:23.858Z,3.58
2023-10-06T18:31:40.789Z,5.95
2023-10-06T18:35:57.346Z,4.30
2023-10-06T18:40:14.917Z,7.90
2023-10-06T18:44:32.545Z,7.45
2023-10-06T18:48:49.122Z,5.07
2023-10-06T18:53:05.562Z,4.35
2023-10-06T18:57:22.228Z,4.80
2023-10-06T19:01:39.562Z,7.70
2023-10-06T19:06:06.954Z,5.25
2023-10-06T19:10:23.347Z,4.40
2023-10-06T19:14:40.881Z,28.17
2023-10-06T19:18:59.806Z,31.33
2023-10-06T19:23:16.496Z,8.63
2023-10-06T19:27:33.341Z,5.18
2023-10-06T19:31:49.895Z,5.90
2023-10-06T19:36:07.844Z,6.47
2023-10-06T19:40:24.245Z,5.87
2023-10-06T19:44:44.870Z,5.78
2023-10-06T19:49:01.418Z,5.95
2023-10-06T19:53:18.232Z,6.32
2023-10-06T19:57:36.111Z,4.68
2023-10-06T20:01:52.461Z,11.45
2023-10-06T20:06:09.147Z,6.50
2023-10-06T20:10:31.645Z,12.80
2023-10-06T20:14:47.980Z,8.17
2023-10-06T20:19:04.369Z,6.37
2023-10-06T20:23:21.118Z,8.85
2023-10-06T20:27:37.773Z,6.25
2023-10-06T20:31:55.064Z,2.87
2023-10-06T20:36:11.471Z,5.12
2023-10-06T20:40:29.259Z,9.45
2023-10-06T20:44:45.626Z,7.03
2023-10-06T20:49:02.164Z,6.30
2023-10-06T20:53:18.719Z,37.55
2023-10-06T20:57:36.055Z,212.52
2023-10-06T21:01:53.497Z,204.73
2023-10-06T21:06:10.261Z,62.85
2023-10-06T21:10:28.152Z,23.10
2023-10-06T21:14:45.286Z,8.35
2023-10-06T21:19:01.593Z,6.32
2023-10-06T21:23:19.065Z,4.75
2023-10-06T21:27:37.493Z,6.15
2023-10-06T21:31:54.478Z,3.50
2023-10-06T21:36:10.830Z,4.97
2023-10-06T21:40:28.736Z,5.60
2023-10-06T21:44:45.483Z,5.97
2023-10-06T21:49:03.815Z,10.85
2023-10-06T21:53:20.197Z,4.95
2023-10-06T21:57:36.555Z,6.35
2023-10-06T22:01:53.931Z,6.45
2023-10-06T22:06:11.414Z,7.05
2023-10-06T22:10:29.005Z,5.60
2023-10-06T22:14:45.359Z,5.57
2023-10-06T22:19:01.696Z,4.75
2023-10-06T22:23:18.052Z,20.90
2023-10-06T22:27:34.673Z,8.98
2023-10-06T22:31:51.500Z,10.20
2023-10-06T22:36:08.070Z,5.60
2023-10-06T22:40:25.115Z,5.37
2023-10-06T22:44:41.623Z,6.47
2023-10-06T22:48:58.403Z,7.85
2023-10-06T22:53:14.822Z,4.87
2023-10-06T22:57:31.226Z,7.22
2023-10-06T23:01:48.212Z,4.97
2023-10-06T23:06:06.503Z,5.87
2023-10-06T23:10:24.001Z,3.97
2023-10-06T23:14:43.636Z,6.15
2023-10-06T23:19:00.386Z,5.45
2023-10-06T23:23:20.812Z,6.28
2023-10-06T23:27:37.973Z,8.57
2023-10-06T23:31:54.455Z,4.68
2023-10-06T23:36:11.770Z,6.95
2023-10-06T23:40:34.865Z,4.75
2023-10-06T23:44:51.288Z,5.57
2023-10-06T23:49:12.728Z,9.63
2023-10-06T23:53:29.543Z,5.05
2023-10-06T23:57:51.708Z,5.60
